sensor_id;sensor_type;location;lat;lon;timestamp;temperature;humidity
20068;DHT22;10194;50.824;7.134;2022-12-04T00:01:54;2.80;99.90
20068;DHT22;10194;50.824;7.134;2022-12-04T00:04:20;2.80;99.90
20068;DHT22;10194;50.824;7.134;2022-12-04T00:06:46;2.80;99.90
20068;DHT22;10194;50.824;7.134;2022-12-04T00:09:11;2.80;99.90
20068;DHT22;10194;50.824;7.134;2022-12-04T00:11:37;2.80;99.90
20068;DHT22;10194;50.824;7.134;2022-12-04T00:14:04;2.80;99.90
20068;DHT22;10194;50.824;7.134;2022-12-04T00:16:30;2.80;99.90
20068;DHT22;10194;50.824;7.134;2022-12-04T00:18:56;2.80;99.90
20068;DHT22;10194;50.824;7.134;2022-12-04T00:21:23;2.80;99.90
20068;DHT22;10194;50.824;7.134;2022-12-04T00:23:50;2.80;99.90
20068;DHT22;10194;50.824;7.134;2022-12-04T00:26:18;2.90;99.90
20068;DHT22;10194;50.824;7.134;2022-12-04T00:28:47;2.80;99.90
20068;DHT22;10194;50.824;7.134;2022-12-04T00:31:16;2.80;99.90
20068;DHT22;10194;50.824;7.134;2022-12-04T00:33:43;2.80;99.90
20068;DHT22;10194;50.824;7.134;2022-12-04T00:36:15;2.80;99.90
20068;DHT22;10194;50.824;7.134;2022-12-04T00:38:43;2.80;99.90
20068;DHT22;10194;50.824;7.134;2022-12-04T00:41:13;2.80;99.90
20068;DHT22;10194;50.824;7.134;2022-12-04T00:43:41;2.80;99.90
20068;DHT22;10194;50.824;7.134;2022-12-04T00:46:07;2.80;99.90
20068;DHT22;10194;50.824;7.134;2022-12-04T00:48:33;2.80;99.90
20068;DHT22;10194;50.824;7.134;2022-12-04T00:51:08;2.80;99.90
20068;DHT22;10194;50.824;7.134;2022-12-04T00:53:36;2.80;99.90
20068;DHT22;10194;50.824;7.134;2022-12-04T00:56:03;2.80;99.90
20068;DHT22;10194;50.824;7.134;2022-12-04T00:58:31;2.80;99.90
20068;DHT22;10194;50.824;7.134;2022-12-04T01:01:10;2.80;99.90
20068;DHT22;10194;50.824;7.134;2022-12-04T01:03:37;2.80;99.90
20068;DHT22;10194;50.824;7.134;2022-12-04T01:06:05;2.80;99.90
20068;DHT22;10194;50.824;7.134;2022-12-04T01:08:32;2.80;99.90
20068;DHT22;10194;50.824;7.134;2022-12-04T01:10:58;2.70;99.90
20068;DHT22;10194;50.824;7.134;2022-12-04T01:13:25;2.70;99.90
20068;DHT22;10194;50.824;7.134;2022-12-04T01:15:51;2.70;99.90
20068;DHT22;10194;50.824;7.134;2022-12-04T01:18:17;2.80;99.90
20068;DHT22;10194;50.824;7.134;2022-12-04T01:20:47;2.80;99.90
20068;DHT22;10194;50.824;7.134;2022-12-04T01:23:14;2.80;99.90
20068;DHT22;10194;50.824;7.134;2022-12-04T01:25:52;2.80;99.90
20068;DHT22;10194;50.824;7.134;2022-12-04T01:28:22;2.80;99.90
20068;DHT22;10194;50.824;7.134;2022-12-04T01:31:06;2.80;99.90
20068;DHT22;10194;50.824;7.134;2022-12-04T01:33:37;2.80;99.90
20068;DHT22;10194;50.824;7.134;2022-12-04T01:36:06;2.80;99.90
20068;DHT22;10194;50.824;7.134;2022-12-04T01:38:34;2.80;99.90
20068;DHT22;10194;50.824;7.134;2022-12-04T01:41:01;2.90;99.90
20068;DHT22;10194;50.824;7.134;2022-12-04T01:43:29;2.80;99.90
20068;DHT22;10194;50.824;7.134;2022-12-04T01:45:58;2.80;99.90
20068;DHT22;10194;50.824;7.134;2022-12-04T01:53:52;2.80;99.90
20068;DHT22;10194;50.824;7.134;2022-12-04T01:56:25;2.80;99.90
20068;DHT22;10194;50.824;7.134;2022-12-04T01:58:57;2.80;99.90
20068;DHT22;10194;50.824;7.134;2022-12-04T02:01:25;2.80;99.90
20068;DHT22;10194;50.824;7.134;2022-12-04T02:03:52;2.80;99.90
20068;DHT22;10194;50.824;7.134;2022-12-04T02:06:18;2.80;99.90
20068;DHT22;10194;50.824;7.134;2022-12-04T02:08:44;2.70;99.90
20068;DHT22;10194;50.824;7.134;2022-12-04T02:11:45;2.80;99.90
20068;DHT22;10194;50.824;7.134;2022-12-04T02:14:47;2.80;99.90
20068;DHT22;10194;50.824;7.134;2022-12-04T02:17:41;2.70;99.90
20068;DHT22;10194;50.824;7.134;2022-12-04T02:26:28;2.60;99.90
20068;DHT22;10194;50.824;7.134;2022-12-04T02:34:47;2.60;99.90
20068;DHT22;10194;50.824;7.134;2022-12-04T02:37:33;2.60;99.90
20068;DHT22;10194;50.824;7.134;2022-12-04T02:40:22;2.60;99.90
20068;DHT22;10194;50.824;7.134;2022-12-04T02:42:58;2.50;99.90
20068;DHT22;10194;50.824;7.134;2022-12-04T02:45:35;2.60;99.90
20068;DHT22;10194;50.824;7.134;2022-12-04T02:48:05;2.60;99.90
20068;DHT22;10194;50.824;7.134;2022-12-04T02:50:35;2.60;99.90
20068;DHT22;10194;50.824;7.134;2022-12-04T02:53:11;2.50;99.90
20068;DHT22;10194;50.824;7.134;2022-12-04T02:56:12;2.50;99.90
20068;DHT22;10194;50.824;7.134;2022-12-04T02:58:45;2.50;99.90
20068;DHT22;10194;50.824;7.134;2022-12-04T03:01:15;2.60;99.90
20068;DHT22;10194;50.824;7.134;2022-12-04T03:04:10;2.60;99.90
20068;DHT22;10194;50.824;7.134;2022-12-04T03:06:39;2.50;99.90
20068;DHT22;10194;50.824;7.134;2022-12-04T03:09:32;2.40;99.90
20068;DHT22;10194;50.824;7.134;2022-12-04T03:12:15;2.50;99.90
20068;DHT22;10194;50.824;7.134;2022-12-04T03:15:04;2.50;99.90
20068;DHT22;10194;50.824;7.134;2022-12-04T03:20:37;2.40;99.90
20068;DHT22;10194;50.824;7.134;2022-12-04T03:23:12;2.40;99.90
20068;DHT22;10194;50.824;7.134;2022-12-04T03:25:49;2.40;99.90
20068;DHT22;10194;50.824;7.134;2022-12-04T03:28:57;2.50;99.90
20068;DHT22;10194;50.824;7.134;2022-12-04T03:31:38;2.50;99.90
20068;DHT22;10194;50.824;7.134;2022-12-04T03:34:07;2.50;99.90
20068;DHT22;10194;50.824;7.134;2022-12-04T03:36:37;2.50;99.90
20068;DHT22;10194;50.824;7.134;2022-12-04T03:39:25;2.50;99.90
20068;DHT22;10194;50.824;7.134;2022-12-04T03:42:12;2.40;99.90
20068;DHT22;10194;50.824;7.134;2022-12-04T03:45:02;2.40;99.90
20068;DHT22;10194;50.824;7.134;2022-12-04T03:50:17;2.50;99.90
20068;DHT22;10194;50.824;7.134;2022-12-04T03:53:11;2.40;99.90
20068;DHT22;10194;50.824;7.134;2022-12-04T03:55:49;2.50;99.90
20068;DHT22;10194;50.824;7.134;2022-12-04T03:58:25;2.40;99.90
20068;DHT22;10194;50.824;7.134;2022-12-04T04:00:55;2.30;99.90
20068;DHT22;10194;50.824;7.134;2022-12-04T04:03:28;2.30;99.90
20068;DHT22;10194;50.824;7.134;2022-12-04T04:06:03;2.30;99.90
20068;DHT22;10194;50.824;7.134;2022-12-04T04:08:34;2.40;99.90
20068;DHT22;10194;50.824;7.134;2022-12-04T04:11:15;2.40;99.90
20068;DHT22;10194;50.824;7.134;2022-12-04T04:13:58;2.40;99.90
20068;DHT22;10194;50.824;7.134;2022-12-04T04:16:55;2.30;99.90
20068;DHT22;10194;50.824;7.134;2022-12-04T04:19:44;2.20;99.90
20068;DHT22;10194;50.824;7.134;2022-12-04T04:22:32;2.30;99.90
20068;DHT22;10194;50.824;7.134;2022-12-04T04:25:20;2.20;99.90
20068;DHT22;10194;50.824;7.134;2022-12-04T04:27:54;2.20;99.90
20068;DHT22;10194;50.824;7.134;2022-12-04T04:30:21;2.30;99.90
20068;DHT22;10194;50.824;7.134;2022-12-04T04:32:50;2.40;99.90
20068;DHT22;10194;50.824;7.134;2022-12-04T04:35:32;2.30;99.90
20068;DHT22;10194;50.824;7.134;2022-12-04T04:38:36;2.30;99.90
20068;DHT22;10194;50.824;7.134;2022-12-04T04:41:32;2.40;99.90
20068;DHT22;10194;50.824;7.134;2022-12-04T04:44:21;2.40;99.90
20068;DHT22;10194;50.824;7.134;2022-12-04T04:46:59;2.20;99.90
20068;DHT22;10194;50.824;7.134;2022-12-04T04:49:29;2.30;99.90
20068;DHT22;10194;50.824;7.134;2022-12-04T04:51:57;2.20;99.90
20068;DHT22;10194;50.824;7.134;2022-12-04T04:54:24;2.20;99.90
20068;DHT22;10194;50.824;7.134;2022-12-04T04:56:50;2.20;99.90
20068;DHT22;10194;50.824;7.134;2022-12-04T04:59:16;2.20;99.90
20068;DHT22;10194;50.824;7.134;2022-12-04T05:01:44;2.10;99.90
20068;DHT22;10194;50.824;7.134;2022-12-04T05:04:11;2.10;99.90
20068;DHT22;10194;50.824;7.134;2022-12-04T05:06:37;2.10;99.90
20068;DHT22;10194;50.824;7.134;2022-12-04T05:09:03;2.10;99.90
20068;DHT22;10194;50.824;7.134;2022-12-04T05:11:28;2.10;99.90
20068;DHT22;10194;50.824;7.134;2022-12-04T05:13:55;2.20;99.90
20068;DHT22;10194;50.824;7.134;2022-12-04T05:16:21;2.20;99.90
20068;DHT22;10194;50.824;7.134;2022-12-04T05:18:47;2.20;99.90
20068;DHT22;10194;50.824;7.134;2022-12-04T05:21:32;2.10;99.90
20068;DHT22;10194;50.824;7.134;2022-12-04T05:23:58;2.00;99.90
20068;DHT22;10194;50.824;7.134;2022-12-04T05:26:24;2.10;99.90
20068;DHT22;10194;50.824;7.134;2022-12-04T05:28:50;2.10;99.90
20068;DHT22;10194;50.824;7.134;2022-12-04T05:31:16;2.20;99.90
20068;DHT22;10194;50.824;7.134;2022-12-04T05:33:42;2.20;99.90
20068;DHT22;10194;50.824;7.134;2022-12-04T05:36:09;2.10;99.90
20068;DHT22;10194;50.824;7.134;2022-12-04T05:38:36;2.10;99.90
20068;DHT22;10194;50.824;7.134;2022-12-04T05:41:04;2.10;99.90
20068;DHT22;10194;50.824;7.134;2022-12-04T05:43:32;2.00;99.90
20068;DHT22;10194;50.824;7.134;2022-12-04T05:46:03;1.90;99.90
20068;DHT22;10194;50.824;7.134;2022-12-04T05:48:30;1.90;99.90
20068;DHT22;10194;50.824;7.134;2022-12-04T05:50:56;2.00;99.90
20068;DHT22;10194;50.824;7.134;2022-12-04T05:53:22;2.00;99.90
20068;DHT22;10194;50.824;7.134;2022-12-04T05:55:59;2.00;99.90
20068;DHT22;10194;50.824;7.134;2022-12-04T05:58:26;2.00;99.90
20068;DHT22;10194;50.824;7.134;2022-12-04T06:00:53;2.10;99.90
20068;DHT22;10194;50.824;7.134;2022-12-04T06:03:19;1.90;99.90
20068;DHT22;10194;50.824;7.134;2022-12-04T06:05:45;1.80;99.90
20068;DHT22;10194;50.824;7.134;2022-12-04T06:08:11;1.80;99.90
20068;DHT22;10194;50.824;7.134;2022-12-04T06:10:37;1.80;99.90
20068;DHT22;10194;50.824;7.134;2022-12-04T06:13:06;1.80;99.90
20068;DHT22;10194;50.824;7.134;2022-12-04T06:15:39;1.70;99.90
20068;DHT22;10194;50.824;7.134;2022-12-04T06:18:05;1.80;99.90
20068;DHT22;10194;50.824;7.134;2022-12-04T06:20:31;1.90;99.90
20068;DHT22;10194;50.824;7.134;2022-12-04T06:22:57;1.90;99.90
20068;DHT22;10194;50.824;7.134;2022-12-04T06:25:23;1.90;99.90
20068;DHT22;10194;50.824;7.134;2022-12-04T06:27:48;1.80;99.90
20068;DHT22;10194;50.824;7.134;2022-12-04T06:30:15;1.80;99.90
20068;DHT22;10194;50.824;7.134;2022-12-04T06:32:41;1.80;99.90
20068;DHT22;10194;50.824;7.134;2022-12-04T06:35:07;1.70;99.90
20068;DHT22;10194;50.824;7.134;2022-12-04T06:37:33;1.60;99.90
20068;DHT22;10194;50.824;7.134;2022-12-04T06:39:59;1.60;99.90
20068;DHT22;10194;50.824;7.134;2022-12-04T06:42:25;1.70;99.90
20068;DHT22;10194;50.824;7.134;2022-12-04T06:44:51;1.70;99.90
20068;DHT22;10194;50.824;7.134;2022-12-04T06:47:16;1.80;99.90
20068;DHT22;10194;50.824;7.134;2022-12-04T06:49:42;1.80;99.90
20068;DHT22;10194;50.824;7.134;2022-12-04T06:52:10;1.80;99.90
20068;DHT22;10194;50.824;7.134;2022-12-04T06:54:36;1.70;99.90
20068;DHT22;10194;50.824;7.134;2022-12-04T06:57:02;1.70;99.90
20068;DHT22;10194;50.824;7.134;2022-12-04T06:59:27;1.80;99.90
20068;DHT22;10194;50.824;7.134;2022-12-04T07:01:53;1.70;99.90
20068;DHT22;10194;50.824;7.134;2022-12-04T07:04:19;1.60;99.90
20068;DHT22;10194;50.824;7.134;2022-12-04T07:06:45;1.60;99.90
20068;DHT22;10194;50.824;7.134;2022-12-04T07:09:16;1.60;99.90
20068;DHT22;10194;50.824;7.134;2022-12-04T07:11:43;1.60;99.90
20068;DHT22;10194;50.824;7.134;2022-12-04T07:14:10;1.60;99.90
20068;DHT22;10194;50.824;7.134;2022-12-04T07:16:37;1.70;99.90
20068;DHT22;10194;50.824;7.134;2022-12-04T07:19:03;1.70;99.90
20068;DHT22;10194;50.824;7.134;2022-12-04T07:21:30;1.70;99.90
20068;DHT22;10194;50.824;7.134;2022-12-04T07:23:57;1.70;99.90
20068;DHT22;10194;50.824;7.134;2022-12-04T07:26:26;1.80;99.90
20068;DHT22;10194;50.824;7.134;2022-12-04T07:28:53;1.80;99.90
20068;DHT22;10194;50.824;7.134;2022-12-04T07:31:21;1.70;99.90
20068;DHT22;10194;50.824;7.134;2022-12-04T07:33:48;1.70;99.90
20068;DHT22;10194;50.824;7.134;2022-12-04T07:36:17;1.70;99.90
20068;DHT22;10194;50.824;7.134;2022-12-04T07:38:44;1.70;99.90
20068;DHT22;10194;50.824;7.134;2022-12-04T07:41:11;1.70;99.90
20068;DHT22;10194;50.824;7.134;2022-12-04T07:43:38;1.60;99.90
20068;DHT22;10194;50.824;7.134;2022-12-04T07:46:14;1.50;99.90
20068;DHT22;10194;50.824;7.134;2022-12-04T07:48:42;1.60;99.90
20068;DHT22;10194;50.824;7.134;2022-12-04T07:51:19;1.50;99.90
20068;DHT22;10194;50.824;7.134;2022-12-04T07:53:47;1.50;99.90
20068;DHT22;10194;50.824;7.134;2022-12-04T07:56:14;1.60;99.90
20068;DHT22;10194;50.824;7.134;2022-12-04T07:58:41;1.60;99.90
20068;DHT22;10194;50.824;7.134;2022-12-04T08:01:19;1.60;99.90
20068;DHT22;10194;50.824;7.134;2022-12-04T08:03:49;1.50;99.90
20068;DHT22;10194;50.824;7.134;2022-12-04T08:06:18;1.60;99.90
20068;DHT22;10194;50.824;7.134;2022-12-04T08:08:46;1.70;99.90
20068;DHT22;10194;50.824;7.134;2022-12-04T08:11:15;1.60;99.90
20068;DHT22;10194;50.824;7.134;2022-12-04T08:13:42;1.70;99.90
20068;DHT22;10194;50.824;7.134;2022-12-04T08:16:10;1.80;99.90
20068;DHT22;10194;50.824;7.134;2022-12-04T08:18:36;1.70;99.90
20068;DHT22;10194;50.824;7.134;2022-12-04T08:21:14;1.70;99.90
20068;DHT22;10194;50.824;7.134;2022-12-04T08:23:42;1.70;99.90
20068;DHT22;10194;50.824;7.134;2022-12-04T08:26:09;1.70;99.90
20068;DHT22;10194;50.824;7.134;2022-12-04T08:28:36;1.80;99.90
20068;DHT22;10194;50.824;7.134;2022-12-04T08:31:12;1.70;99.90
20068;DHT22;10194;50.824;7.134;2022-12-04T08:33:42;1.80;99.90
20068;DHT22;10194;50.824;7.134;2022-12-04T08:36:10;1.70;99.90
20068;DHT22;10194;50.824;7.134;2022-12-04T08:38:37;1.80;99.90
20068;DHT22;10194;50.824;7.134;2022-12-04T08:41:05;1.80;99.90
20068;DHT22;10194;50.824;7.134;2022-12-04T08:43:31;1.80;99.90
20068;DHT22;10194;50.824;7.134;2022-12-04T08:45:59;1.70;99.90
20068;DHT22;10194;50.824;7.134;2022-12-04T08:48:26;1.70;99.90
20068;DHT22;10194;50.824;7.134;2022-12-04T08:50:52;1.70;99.90
20068;DHT22;10194;50.824;7.134;2022-12-04T08:53:19;1.70;99.90
20068;DHT22;10194;50.824;7.134;2022-12-04T08:55:45;1.70;99.90
20068;DHT22;10194;50.824;7.134;2022-12-04T08:58:10;1.80;99.90
20068;DHT22;10194;50.824;7.134;2022-12-04T09:00:36;1.90;99.90
20068;DHT22;10194;50.824;7.134;2022-12-04T09:03:03;1.90;99.90
20068;DHT22;10194;50.824;7.134;2022-12-04T09:05:29;2.00;99.90
20068;DHT22;10194;50.824;7.134;2022-12-04T09:07:55;1.90;99.90
20068;DHT22;10194;50.824;7.134;2022-12-04T09:10:21;1.90;99.90
20068;DHT22;10194;50.824;7.134;2022-12-04T09:12:47;1.90;99.90
20068;DHT22;10194;50.824;7.134;2022-12-04T09:15:13;1.80;99.90
20068;DHT22;10194;50.824;7.134;2022-12-04T09:17:39;1.90;99.90
20068;DHT22;10194;50.824;7.134;2022-12-04T09:20:06;2.00;99.90
20068;DHT22;10194;50.824;7.134;2022-12-04T09:22:34;2.00;99.90
20068;DHT22;10194;50.824;7.134;2022-12-04T09:25:00;2.00;99.90
20068;DHT22;10194;50.824;7.134;2022-12-04T09:27:26;2.00;99.90
20068;DHT22;10194;50.824;7.134;2022-12-04T09:29:52;1.90;99.90
20068;DHT22;10194;50.824;7.134;2022-12-04T09:32:18;2.00;99.90
20068;DHT22;10194;50.824;7.134;2022-12-04T09:34:45;2.00;99.90
20068;DHT22;10194;50.824;7.134;2022-12-04T09:37:12;2.00;99.90
20068;DHT22;10194;50.824;7.134;2022-12-04T09:39:38;2.00;99.90
20068;DHT22;10194;50.824;7.134;2022-12-04T09:44:46;2.10;99.90
20068;DHT22;10194;50.824;7.134;2022-12-04T09:47:27;2.10;99.90
20068;DHT22;10194;50.824;7.134;2022-12-04T09:50:02;2.10;99.90
20068;DHT22;10194;50.824;7.134;2022-12-04T09:53:05;2.10;99.90
20068;DHT22;10194;50.824;7.134;2022-12-04T09:55:43;2.30;99.90
20068;DHT22;10194;50.824;7.134;2022-12-04T09:58:14;2.30;99.90
20068;DHT22;10194;50.824;7.134;2022-12-04T10:00:46;2.40;99.90
20068;DHT22;10194;50.824;7.134;2022-12-04T10:03:16;2.40;99.90
20068;DHT22;10194;50.824;7.134;2022-12-04T10:06:13;2.40;99.90
20068;DHT22;10194;50.824;7.134;2022-12-04T10:08:50;2.50;99.90
20068;DHT22;10194;50.824;7.134;2022-12-04T10:14:27;2.30;99.90
20068;DHT22;10194;50.824;7.134;2022-12-04T10:17:26;2.30;99.90
20068;DHT22;10194;50.824;7.134;2022-12-04T10:26:12;2.50;99.90
20068;DHT22;10194;50.824;7.134;2022-12-04T10:28:51;2.50;99.90
20068;DHT22;10194;50.824;7.134;2022-12-04T10:31:19;2.60;99.90
20068;DHT22;10194;50.824;7.134;2022-12-04T10:34:04;2.50;99.90
20068;DHT22;10194;50.824;7.134;2022-12-04T10:36:33;2.50;99.90
20068;DHT22;10194;50.824;7.134;2022-12-04T10:41:44;2.50;99.90
20068;DHT22;10194;50.824;7.134;2022-12-04T10:44:17;2.60;99.90
20068;DHT22;10194;50.824;7.134;2022-12-04T10:46:44;2.70;99.90
20068;DHT22;10194;50.824;7.134;2022-12-04T10:49:17;2.80;99.90
20068;DHT22;10194;50.824;7.134;2022-12-04T10:51:46;2.60;99.90
20068;DHT22;10194;50.824;7.134;2022-12-04T10:57:00;2.70;99.90
20068;DHT22;10194;50.824;7.134;2022-12-04T10:59:28;2.80;99.90
20068;DHT22;10194;50.824;7.134;2022-12-04T11:02:21;2.70;99.90
20068;DHT22;10194;50.824;7.134;2022-12-04T11:04:57;2.50;99.90
20068;DHT22;10194;50.824;7.134;2022-12-04T11:07:49;2.50;99.90
20068;DHT22;10194;50.824;7.134;2022-12-04T11:10:40;2.50;99.90
20068;DHT22;10194;50.824;7.134;2022-12-04T11:13:14;2.50;99.90
20068;DHT22;10194;50.824;7.134;2022-12-04T11:15:49;2.50;99.90
20068;DHT22;10194;50.824;7.134;2022-12-04T11:20:51;2.70;99.90
20068;DHT22;10194;50.824;7.134;2022-12-04T11:23:19;2.80;99.90
20068;DHT22;10194;50.824;7.134;2022-12-04T11:25:51;2.80;99.90
20068;DHT22;10194;50.824;7.134;2022-12-04T11:28:21;2.80;99.90
20068;DHT22;10194;50.824;7.134;2022-12-04T11:30:54;2.90;99.90
20068;DHT22;10194;50.824;7.134;2022-12-04T11:33:43;2.80;99.90
20068;DHT22;10194;50.824;7.134;2022-12-04T11:36:20;2.80;99.90
20068;DHT22;10194;50.824;7.134;2022-12-04T11:39:02;2.90;99.90
20068;DHT22;10194;50.824;7.134;2022-12-04T11:41:31;3.00;99.90
20068;DHT22;10194;50.824;7.134;2022-12-04T11:43:57;2.90;99.90
20068;DHT22;10194;50.824;7.134;2022-12-04T11:46:26;2.80;99.90
20068;DHT22;10194;50.824;7.134;2022-12-04T11:48:55;2.80;99.90
20068;DHT22;10194;50.824;7.134;2022-12-04T11:51:44;2.90;99.90
20068;DHT22;10194;50.824;7.134;2022-12-04T11:57:16;2.80;99.90
20068;DHT22;10194;50.824;7.134;2022-12-04T12:02:38;2.90;99.90
20068;DHT22;10194;50.824;7.134;2022-12-04T12:20:37;2.90;99.90
20068;DHT22;10194;50.824;7.134;2022-12-04T12:23:30;3.00;99.90
20068;DHT22;10194;50.824;7.134;2022-12-04T12:26:22;3.00;99.90
20068;DHT22;10194;50.824;7.134;2022-12-04T12:32:13;2.90;99.90
20068;DHT22;10194;50.824;7.134;2022-12-04T12:34:54;3.00;99.90
20068;DHT22;10194;50.824;7.134;2022-12-04T12:37:30;3.10;99.90
20068;DHT22;10194;50.824;7.134;2022-12-04T12:43:32;3.30;99.90
20068;DHT22;10194;50.824;7.134;2022-12-04T12:46:11;3.30;99.90
20068;DHT22;10194;50.824;7.134;2022-12-04T12:51:38;3.20;99.90
20068;DHT22;10194;50.824;7.134;2022-12-04T12:54:47;3.20;99.90
20068;DHT22;10194;50.824;7.134;2022-12-04T12:57:28;3.20;99.90
20068;DHT22;10194;50.824;7.134;2022-12-04T13:00:17;3.20;99.90
20068;DHT22;10194;50.824;7.134;2022-12-04T13:02:54;3.20;99.90
20068;DHT22;10194;50.824;7.134;2022-12-04T13:06:00;3.20;99.90
20068;DHT22;10194;50.824;7.134;2022-12-04T13:08:34;3.20;99.90
20068;DHT22;10194;50.824;7.134;2022-12-04T13:11:15;3.20;99.90
20068;DHT22;10194;50.824;7.134;2022-12-04T13:13:58;3.20;99.90
20068;DHT22;10194;50.824;7.134;2022-12-04T13:16:37;3.30;99.90
20068;DHT22;10194;50.824;7.134;2022-12-04T13:30:22;3.40;99.90
20068;DHT22;10194;50.824;7.134;2022-12-04T13:36:14;3.30;99.90
20068;DHT22;10194;50.824;7.134;2022-12-04T13:39:26;3.30;99.90
20068;DHT22;10194;50.824;7.134;2022-12-04T13:42:00;3.30;99.90
20068;DHT22;10194;50.824;7.134;2022-12-04T13:44:28;3.20;99.90
20068;DHT22;10194;50.824;7.134;2022-12-04T13:47:05;3.10;99.90
20068;DHT22;10194;50.824;7.134;2022-12-04T13:49:36;3.20;99.90
20068;DHT22;10194;50.824;7.134;2022-12-04T13:52:24;3.10;99.90
20068;DHT22;10194;50.824;7.134;2022-12-04T13:55:20;3.10;99.90
20068;DHT22;10194;50.824;7.134;2022-12-04T13:57:56;3.20;99.90
20068;DHT22;10194;50.824;7.134;2022-12-04T14:00:35;3.10;99.90
20068;DHT22;10194;50.824;7.134;2022-12-04T14:03:26;3.20;99.90
20068;DHT22;10194;50.824;7.134;2022-12-04T14:05:53;3.30;99.90
20068;DHT22;10194;50.824;7.134;2022-12-04T14:08:25;3.30;99.90
20068;DHT22;10194;50.824;7.134;2022-12-04T14:11:00;3.30;99.90
20068;DHT22;10194;50.824;7.134;2022-12-04T14:16:14;3.30;99.90
20068;DHT22;10194;50.824;7.134;2022-12-04T14:18:48;3.30;99.90
20068;DHT22;10194;50.824;7.134;2022-12-04T14:21:17;3.30;99.90
20068;DHT22;10194;50.824;7.134;2022-12-04T14:23:43;3.30;99.90
20068;DHT22;10194;50.824;7.134;2022-12-04T14:26:20;3.30;99.90
20068;DHT22;10194;50.824;7.134;2022-12-04T14:29:06;3.30;99.90
20068;DHT22;10194;50.824;7.134;2022-12-04T14:32:09;3.40;99.90
20068;DHT22;10194;50.824;7.134;2022-12-04T14:35:00;3.30;99.90
20068;DHT22;10194;50.824;7.134;2022-12-04T14:37:30;3.30;99.90
20068;DHT22;10194;50.824;7.134;2022-12-04T14:39:59;3.30;99.90
20068;DHT22;10194;50.824;7.134;2022-12-04T14:42:36;3.40;99.90
20068;DHT22;10194;50.824;7.134;2022-12-04T14:45:05;3.40;99.90
20068;DHT22;10194;50.824;7.134;2022-12-04T14:53:30;3.40;99.90
20068;DHT22;10194;50.824;7.134;2022-12-04T14:58:49;3.50;99.90
20068;DHT22;10194;50.824;7.134;2022-12-04T15:01:21;3.40;99.90
20068;DHT22;10194;50.824;7.134;2022-12-04T15:03:50;3.40;99.90
20068;DHT22;10194;50.824;7.134;2022-12-04T15:06:25;3.40;99.90
20068;DHT22;10194;50.824;7.134;2022-12-04T15:09:02;3.40;99.90
20068;DHT22;10194;50.824;7.134;2022-12-04T15:11:52;3.30;99.90
20068;DHT22;10194;50.824;7.134;2022-12-04T15:14:48;3.30;99.90
20068;DHT22;10194;50.824;7.134;2022-12-04T15:17:16;3.30;99.90
20068;DHT22;10194;50.824;7.134;2022-12-04T15:19:43;3.40;99.90
20068;DHT22;10194;50.824;7.134;2022-12-04T15:22:20;3.30;99.90
20068;DHT22;10194;50.824;7.134;2022-12-04T15:24:47;3.30;99.90
20068;DHT22;10194;50.824;7.134;2022-12-04T15:27:17;3.30;99.90
20068;DHT22;10194;50.824;7.134;2022-12-04T15:29:46;3.20;99.90
20068;DHT22;10194;50.824;7.134;2022-12-04T15:32:15;3.20;99.90
20068;DHT22;10194;50.824;7.134;2022-12-04T15:34:46;3.30;99.90
20068;DHT22;10194;50.824;7.134;2022-12-04T15:37:24;3.20;99.90
20068;DHT22;10194;50.824;7.134;2022-12-04T15:39:53;3.20;99.90
20068;DHT22;10194;50.824;7.134;2022-12-04T15:45:21;3.30;99.90
20068;DHT22;10194;50.824;7.134;2022-12-04T15:47:51;3.20;99.90
20068;DHT22;10194;50.824;7.134;2022-12-04T15:53:07;3.20;99.90
20068;DHT22;10194;50.824;7.134;2022-12-04T15:55:52;3.20;99.90
20068;DHT22;10194;50.824;7.134;2022-12-04T15:58:27;3.30;99.90
20068;DHT22;10194;50.824;7.134;2022-12-04T16:06:03;3.20;99.90
20068;DHT22;10194;50.824;7.134;2022-12-04T16:08:32;3.30;99.90
20068;DHT22;10194;50.824;7.134;2022-12-04T16:11:02;3.30;99.90
20068;DHT22;10194;50.824;7.134;2022-12-04T16:13:34;3.40;99.90
20068;DHT22;10194;50.824;7.134;2022-12-04T16:16:07;3.40;99.90
20068;DHT22;10194;50.824;7.134;2022-12-04T16:18:38;3.30;99.90
20068;DHT22;10194;50.824;7.134;2022-12-04T16:21:14;3.20;99.90
20068;DHT22;10194;50.824;7.134;2022-12-04T16:23:41;3.20;99.90
20068;DHT22;10194;50.824;7.134;2022-12-04T16:26:16;3.30;99.90
20068;DHT22;10194;50.824;7.134;2022-12-04T16:28:43;3.30;99.90
20068;DHT22;10194;50.824;7.134;2022-12-04T16:31:12;3.30;99.90
20068;DHT22;10194;50.824;7.134;2022-12-04T16:33:39;3.30;99.90
20068;DHT22;10194;50.824;7.134;2022-12-04T16:36:05;3.20;99.90
20068;DHT22;10194;50.824;7.134;2022-12-04T16:38:33;3.20;99.90
20068;DHT22;10194;50.824;7.134;2022-12-04T16:40:59;3.10;99.90
20068;DHT22;10194;50.824;7.134;2022-12-04T16:43:25;3.10;99.90
20068;DHT22;10194;50.824;7.134;2022-12-04T16:45:53;3.00;99.90
20068;DHT22;10194;50.824;7.134;2022-12-04T16:48:19;3.20;99.90
20068;DHT22;10194;50.824;7.134;2022-12-04T16:50:46;3.30;99.90
20068;DHT22;10194;50.824;7.134;2022-12-04T16:53:15;3.40;99.90
20068;DHT22;10194;50.824;7.134;2022-12-04T16:55:47;3.20;99.90
20068;DHT22;10194;50.824;7.134;2022-12-04T16:58:15;3.20;99.90
20068;DHT22;10194;50.824;7.134;2022-12-04T17:00:42;3.40;99.90
20068;DHT22;10194;50.824;7.134;2022-12-04T17:03:27;3.40;99.90
20068;DHT22;10194;50.824;7.134;2022-12-04T17:05:54;3.40;99.90
20068;DHT22;10194;50.824;7.134;2022-12-04T17:08:21;3.50;99.90
20068;DHT22;10194;50.824;7.134;2022-12-04T17:10:47;3.60;99.90
20068;DHT22;10194;50.824;7.134;2022-12-04T17:13:13;3.50;99.90
20068;DHT22;10194;50.824;7.134;2022-12-04T17:15:38;3.40;99.90
20068;DHT22;10194;50.824;7.134;2022-12-04T17:18:04;3.40;99.90
20068;DHT22;10194;50.824;7.134;2022-12-04T17:20:30;3.50;99.90
20068;DHT22;10194;50.824;7.134;2022-12-04T17:22:56;3.50;99.90
20068;DHT22;10194;50.824;7.134;2022-12-04T17:25:22;3.50;99.90
20068;DHT22;10194;50.824;7.134;2022-12-04T17:27:48;3.50;99.90
20068;DHT22;10194;50.824;7.134;2022-12-04T17:30:14;3.40;99.90
20068;DHT22;10194;50.824;7.134;2022-12-04T17:32:40;3.40;99.90
20068;DHT22;10194;50.824;7.134;2022-12-04T17:35:08;3.40;99.90
20068;DHT22;10194;50.824;7.134;2022-12-04T17:37:36;3.50;99.90
20068;DHT22;10194;50.824;7.134;2022-12-04T17:40:06;3.60;99.90
20068;DHT22;10194;50.824;7.134;2022-12-04T17:42:35;3.50;99.90
20068;DHT22;10194;50.824;7.134;2022-12-04T17:45:01;3.40;99.90
20068;DHT22;10194;50.824;7.134;2022-12-04T17:47:27;3.40;99.90
20068;DHT22;10194;50.824;7.134;2022-12-04T17:49:53;3.40;99.90
20068;DHT22;10194;50.824;7.134;2022-12-04T17:52:19;3.40;99.90
20068;DHT22;10194;50.824;7.134;2022-12-04T17:54:50;3.40;99.90
20068;DHT22;10194;50.824;7.134;2022-12-04T17:57:17;3.50;99.90
20068;DHT22;10194;50.824;7.134;2022-12-04T17:59:44;3.50;99.90
20068;DHT22;10194;50.824;7.134;2022-12-04T18:02:11;3.50;99.90
20068;DHT22;10194;50.824;7.134;2022-12-04T18:04:37;3.50;99.90
20068;DHT22;10194;50.824;7.134;2022-12-04T18:07:03;3.50;99.90
20068;DHT22;10194;50.824;7.134;2022-12-04T18:09:29;3.60;99.90